Liberty Promise — WWMZ — position and weather

sailwx.info

Track history (hours):
 
Tides and Currents Weather Stations Pressure Air Temp Water Temp Dewpoint Dewpoint Depression Visibility Wind Speed Wind Dir Waves Ship Positions

Liberty Promise

Owner: LIBERTY PROMISE CORPORATION, LAKE SUCCESS, NY. More information available from US FCC via Universal Licensing System and Coast Guard Vessel Documentation Center.

Last reported at 2016-Aug-20 02:27 UTC. Time now 2016-Aug-27 01:15 UTC.
Position N 31°14' E 032°18'.

Length 200 m; draft 8.7 m.

Type: Cargo ship. MMSI: 366102000.

Date/timePositionNaut miles runAvg speedWind from/ knotsBaromVisibWave heightAir tempDewpointWater temp
2016-Aug-20 02:27N 31°14' E 032°18'8 4.3
2016-Aug-20 00:31N 31°22' E 032°20'0 0.1
2016-Aug-19 23:31N 31°22' E 032°20'0 0.0
2016-Aug-19 22:22N 31°22' E 032°20'0 0.0
2016-Aug-19 21:31N 31°22' E 032°20'0 0.0
2016-Aug-19 20:31N 31°22' E 032°20'0 0.0
2016-Aug-19 19:31N 31°22' E 032°20'0 0.0
2016-Aug-19 17:31N 31°22' E 032°20'0 0.0
2016-Aug-19 16:31N 31°22' E 032°20'0 0.0
2016-Aug-19 15:31N 31°22' E 032°20'0 0.0
2016-Aug-19 14:28N 31°22' E 032°20'0 0.0
2016-Aug-19 13:31N 31°22' E 032°20'0 0.0
2016-Aug-19 12:28N 31°22' E 032°20'0 0.0
2016-Aug-19 09:31N 31°22' E 032°20'0 0.0
2016-Aug-19 08:31N 31°22' E 032°20'2 1.9
2016-Aug-19 07:21N 31°24' E 032°21'911.4
2016-Aug-19 06:32N 31°34' E 032°21'2912.8
2016-Aug-19 04:17N 31°56' E 032°42'1213.9
2016-Aug-19 03:25N 32°07' E 032°49'1214.1
2016-Aug-19 02:32N 32°18' E 032°55'1414.0
2016-Aug-19 01:33N 32°30' E 033°03'1414.2
2016-Aug-19 00:33N 32°43' E 033°11'1414.1
2016-Aug-18 23:33N 32°55' E 033°18'1414.4
2016-Aug-18 22:33N 33°08' E 033°27'1514.5
2016-Aug-18 21:34N 33°20' E 033°36'1414.5
2016-Aug-18 20:34N 33°33' E 033°44'1414.3
2016-Aug-18 19:33N 33°45' E 033°52'1515.0
2016-Aug-18 18:33N 33°58' E 034°01'1515.1
2016-Aug-18 17:34N 34°12' E 034°09'1515.0
2016-Aug-18 16:34N 34°24' E 034°19'1514.9
2016-Aug-18 15:33N 34°37' E 034°28'1514.9
2016-Aug-18 14:34N 34°50' E 034°36'  
2016-Aug-15 18:25N 33°22' E 033°53'1416.0
2016-Aug-15 17:32N 33°16' E 033°38'  
2016-Aug-12 01:23N 35°08' E 018°24'1615.7
2016-Aug-12 00:23N 35°14' E 018°06'2016.1
2016-Aug-11 23:09N 35°22' E 017°43'1016.3
2016-Aug-11 22:33N 35°25' E 017°32'1616.3
2016-Aug-11 21:33N 35°32' E 017°14'1716.8
2016-Aug-11 20:33N 35°38' E 016°55'1817.1
2016-Aug-11 19:30N 35°46' E 016°35'1616.7
2016-Aug-11 18:32N 35°51' E 016°16'1616.5
2016-Aug-11 17:32N 35°57' E 015°57'1616.8
2016-Aug-11 16:34N 36°03' E 015°38'1717.1
2016-Aug-11 15:33N 36°10' E 015°19'1716.9
2016-Aug-11 14:33N 36°17' E 014°60'1716.8
2016-Aug-11 13:33N 36°23' E 014°40'1716.7
2016-Aug-11 12:33N 36°30' E 014°22'1717.0
2016-Aug-11 11:33N 36°39' E 014°03'1817.7
2016-Aug-11 10:33N 36°48' E 013°45'1817.9
2016-Aug-11 09:33N 36°57' E 013°25'1817.6
2016-Aug-11 08:33N 37°06' E 013°06'1717.0
2016-Aug-11 07:33N 37°15' E 012°48'1717.1
2016-Aug-11 06:33N 37°24' E 012°29'8316.6
2016-Aug-11 01:33N 38°29' E 011°25'27617.2
2016-Aug-10 09:30N 42°57' E 010°00'1718.4
2016-Aug-10 08:34N 43°14' E 010°07'1716.6
2016-Aug-10 07:33N 43°30' E 010°13'5 4.5
2016-Aug-10 06:31N 43°33' E 010°18'0 0.0
2016-Aug-10 05:31N 43°33' E 010°18'0 0.0
2016-Aug-10 04:31N 43°33' E 010°18'0 0.0
2016-Aug-10 03:22N 43°33' E 010°18'0 0.0
2016-Aug-10 02:31N 43°33' E 010°18'  
Track history (hours):
 
Tides and Currents Weather Stations Pressure Air Temp Water Temp Dewpoint Dewpoint Depression Visibility Wind Speed Wind Dir Waves Ship Positions

Liberty Promise

Owner: LIBERTY PROMISE CORPORATION, LAKE SUCCESS, NY. More information available from US FCC via Universal Licensing System and Coast Guard Vessel Documentation Center.

Last reported at 2016-Aug-20 02:27 UTC. Time now 2016-Aug-27 01:15 UTC.
Position N 31°14' E 032°18'.

Length 200 m; draft 8.7 m.

Type: Cargo ship. MMSI: 366102000.

Date/timePositionNaut miles runAvg speedWind from/ knotsBaromVisibWave heightAir tempDewpointWater temp
2016-Aug-20 02:27N 31°14' E 032°18'8 4.3
2016-Aug-20 00:31N 31°22' E 032°20'0 0.1
2016-Aug-19 23:31N 31°22' E 032°20'0 0.0
2016-Aug-19 22:22N 31°22' E 032°20'0 0.0
2016-Aug-19 21:31N 31°22' E 032°20'0 0.0
2016-Aug-19 20:31N 31°22' E 032°20'0 0.0
2016-Aug-19 19:31N 31°22' E 032°20'0 0.0
2016-Aug-19 17:31N 31°22' E 032°20'0 0.0
2016-Aug-19 16:31N 31°22' E 032°20'0 0.0
2016-Aug-19 15:31N 31°22' E 032°20'0 0.0
2016-Aug-19 14:28N 31°22' E 032°20'0 0.0
2016-Aug-19 13:31N 31°22' E 032°20'0 0.0
2016-Aug-19 12:28N 31°22' E 032°20'0 0.0
2016-Aug-19 09:31N 31°22' E 032°20'0 0.0
2016-Aug-19 08:31N 31°22' E 032°20'2 1.9
2016-Aug-19 07:21N 31°24' E 032°21'911.4
2016-Aug-19 06:32N 31°34' E 032°21'2912.8
2016-Aug-19 04:17N 31°56' E 032°42'1213.9
2016-Aug-19 03:25N 32°07' E 032°49'1214.1
2016-Aug-19 02:32N 32°18' E 032°55'1414.0
2016-Aug-19 01:33N 32°30' E 033°03'1414.2
2016-Aug-19 00:33N 32°43' E 033°11'1414.1
2016-Aug-18 23:33N 32°55' E 033°18'1414.4
2016-Aug-18 22:33N 33°08' E 033°27'1514.5
2016-Aug-18 21:34N 33°20' E 033°36'1414.5
2016-Aug-18 20:34N 33°33' E 033°44'1414.3
2016-Aug-18 19:33N 33°45' E 033°52'1515.0
2016-Aug-18 18:33N 33°58' E 034°01'1515.1
2016-Aug-18 17:34N 34°12' E 034°09'1515.0
2016-Aug-18 16:34N 34°24' E 034°19'1514.9
2016-Aug-18 15:33N 34°37' E 034°28'1514.9
2016-Aug-18 14:34N 34°50' E 034°36'  
2016-Aug-15 18:25N 33°22' E 033°53'1416.0
2016-Aug-15 17:32N 33°16' E 033°38'  
2016-Aug-12 01:23N 35°08' E 018°24'1615.7
2016-Aug-12 00:23N 35°14' E 018°06'2016.1
2016-Aug-11 23:09N 35°22' E 017°43'1016.3
2016-Aug-11 22:33N 35°25' E 017°32'1616.3
2016-Aug-11 21:33N 35°32' E 017°14'1716.8
2016-Aug-11 20:33N 35°38' E 016°55'1817.1
2016-Aug-11 19:30N 35°46' E 016°35'1616.7
2016-Aug-11 18:32N 35°51' E 016°16'1616.5
2016-Aug-11 17:32N 35°57' E 015°57'1616.8
2016-Aug-11 16:34N 36°03' E 015°38'1717.1
2016-Aug-11 15:33N 36°10' E 015°19'1716.9
2016-Aug-11 14:33N 36°17' E 014°60'1716.8
2016-Aug-11 13:33N 36°23' E 014°40'1716.7
2016-Aug-11 12:33N 36°30' E 014°22'1717.0
2016-Aug-11 11:33N 36°39' E 014°03'1817.7
2016-Aug-11 10:33N 36°48' E 013°45'1817.9
2016-Aug-11 09:33N 36°57' E 013°25'1817.6
2016-Aug-11 08:33N 37°06' E 013°06'1717.0
2016-Aug-11 07:33N 37°15' E 012°48'1717.1
2016-Aug-11 06:33N 37°24' E 012°29'8316.6
2016-Aug-11 01:33N 38°29' E 011°25'27617.2
2016-Aug-10 09:30N 42°57' E 010°00'1718.4
2016-Aug-10 08:34N 43°14' E 010°07'1716.6
2016-Aug-10 07:33N 43°30' E 010°13'5 4.5
2016-Aug-10 06:31N 43°33' E 010°18'0 0.0
2016-Aug-10 05:31N 43°33' E 010°18'0 0.0
2016-Aug-10 04:31N 43°33' E 010°18'0 0.0
2016-Aug-10 03:22N 43°33' E 010°18'0 0.0
2016-Aug-10 02:31N 43°33' E 010°18'  

Dump ship's entire track history